Time;durP1;ratioP1;P1;durP2;ratioP2;P2;SDS_P1;SDS_P2;PMS_P1;PMS_P2;Temp;Humidity;BMP_temperature;BMP_pressure;BME280_temperature;BME280_humidity;BME280_pressure;Samples;Min_cycle;Max_cycle;Signal;HPM_P1;HPM_P2
2022/02/07 00:00:18;;;;;;;6.93;0.20;;;5.20;99.90;;;;;;5013640;28;20030;-76
2022/02/07 00:03:11;;;;;;;9.25;0.50;;;5.10;99.90;;;;;;5014540;28;20022;-75
2022/02/07 00:05:36;;;;;;;7.55;0.73;;;5.00;99.90;;;;;;5013948;28;20126;-76
2022/02/07 00:08:02;;;;;;;6.45;0.43;;;5.00;99.90;;;;;;5014016;28;20053;-76
2022/02/07 00:10:27;;;;;;;8.25;1.05;;;4.90;99.90;;;;;;5014110;28;20391;-76
2022/02/07 00:12:53;;;;;;;9.75;0.30;;;5.00;99.90;;;;;;4996611;28;20025;-76
2022/02/07 00:15:19;;;;;;;7.60;0.25;;;4.90;99.90;;;;;;4996209;28;20034;-76
2022/02/07 00:17:45;;;;;;;9.40;0.43;;;4.90;99.90;;;;;;4996178;28;20025;-76
2022/02/07 00:20:16;;;;;;;6.32;0.25;;;4.80;99.90;;;;;;4996435;28;20053;-76
2022/02/07 00:22:41;;;;;;;2.67;0.00;;;4.90;99.90;;;;;;4996228;28;20534;-76
2022/02/07 00:25:08;;;;;;;4.32;0.50;;;4.90;99.90;;;;;;4996154;28;20168;-76
2022/02/07 00:27:34;;;;;;;8.05;0.75;;;4.80;99.90;;;;;;5012381;28;20022;-76
2022/02/07 00:30:00;;;;;;;7.05;0.40;;;4.90;99.90;;;;;;4996165;28;20026;-76
2022/02/07 00:32:26;;;;;;;6.50;0.00;;;5.00;99.90;;;;;;5014102;28;20022;-75
2022/02/07 00:34:52;;;;;;;1.95;0.10;;;4.80;99.90;;;;;;5014489;28;20015;-75
2022/02/07 00:37:17;;;;;;;2.90;0.00;;;4.40;99.90;;;;;;5014242;28;20093;-75
2022/02/07 00:39:49;;;;;;;2.80;0.73;;;4.00;99.90;;;;;;5014478;28;20033;-75
2022/02/07 00:42:24;;;;;;;1.20;0.32;;;3.70;99.90;;;;;;5014118;28;20026;-75
2022/02/07 00:44:51;;;;;;;2.47;0.20;;;3.50;99.90;;;;;;5012494;28;20033;-75
2022/02/07 00:47:16;;;;;;;0.77;0.00;;;3.40;99.90;;;;;;5018017;28;20026;-75
2022/02/07 00:49:43;;;;;;;4.18;0.10;;;3.30;99.90;;;;;;5016346;28;20479;-75
2022/02/07 00:52:08;;;;;;;2.08;0.00;;;3.20;99.90;;;;;;5018180;28;20105;-76
2022/02/07 00:54:35;;;;;;;1.38;0.00;;;3.20;99.90;;;;;;5017506;28;20419;-76
2022/02/07 00:57:00;;;;;;;1.50;0.05;;;3.10;99.90;;;;;;5017720;28;20399;-75
2022/02/07 00:59:26;;;;;;;2.92;0.38;;;3.10;99.90;;;;;;4999793;28;20025;-76
2022/02/07 01:01:51;;;;;;;1.20;0.00;;;3.20;99.90;;;;;;5018142;28;20025;-76
2022/02/07 01:04:17;;;;;;;5.03;0.10;;;3.20;99.90;;;;;;4999831;28;20033;-75
2022/02/07 01:06:43;;;;;;;5.70;0.65;;;3.30;99.90;;;;;;4999581;28;20495;-75
2022/02/07 01:12:03;;;;;;;7.80;0.10;;;3.40;99.90;;;;;;5017846;28;20022;-76
2022/02/07 01:14:48;;;;;;;13.40;0.30;;;3.50;99.90;;;;;;5017071;28;20495;-77
2022/02/07 01:47:39;;;;;;;16.27;0.90;;;4.00;99.90;;;;;;5017480;28;20499;-76
2022/02/07 01:53:01;;;;;;;6.55;0.52;;;3.90;99.90;;;;;;5016776;28;19964;-76
2022/02/07 01:55:39;;;;;;;8.60;0.00;;;3.90;99.90;;;;;;4998976;28;20026;-77
2022/02/07 01:58:09;;;;;;;12.02;1.08;;;3.90;99.90;;;;;;5015326;28;20026;-77
2022/02/07 02:00:37;;;;;;;9.48;0.10;;;3.80;99.90;;;;;;5016491;28;20419;-77
2022/02/07 02:03:03;;;;;;;9.07;0.43;;;4.00;99.90;;;;;;5016796;28;20025;-76
2022/02/07 02:05:36;;;;;;;4.65;0.03;;;4.00;99.90;;;;;;5015906;28;20053;-76
2022/02/07 02:08:15;;;;;;;17.52;0.75;;;3.90;99.90;;;;;;4998604;28;20018;-77
2022/02/07 02:10:46;;;;;;;8.27;0.20;;;3.90;99.90;;;;;;4998721;28;20065;-76
2022/02/07 02:13:25;;;;;;;8.35;0.10;;;4.00;99.90;;;;;;5014850;28;20025;-76
2022/02/07 02:15:58;;;;;;;;;;;4.10;99.90;;;;;;5016317;28;20179;-76
2022/02/07 02:46:17;;;;;;;10.88;0.60;;;4.80;99.90;;;;;;5016233;28;20117;-75
2022/02/07 02:48:43;;;;;;;17.17;1.65;;;4.90;99.90;;;;;;5014697;28;20032;-75
2022/02/07 02:51:09;;;;;;;7.60;0.20;;;4.90;99.90;;;;;;5015909;28;20026;-75
2022/02/07 02:53:35;;;;;;;11.90;0.88;;;4.90;99.90;;;;;;5015237;28;20415;-76
2022/02/07 02:56:02;;;;;;;3.25;0.17;;;5.00;99.90;;;;;;4998640;28;20026;-76
2022/02/07 02:58:27;;;;;;;10.40;1.00;;;5.10;99.90;;;;;;4997648;28;20128;-76
2022/02/07 03:00:54;;;;;;;9.13;0.10;;;5.20;99.90;;;;;;5015226;28;20099;-76
2022/02/07 03:03:20;;;;;;;13.38;0.70;;;5.20;99.90;;;;;;5015320;28;20025;-76
2022/02/07 03:05:47;;;;;;;11.68;0.73;;;5.30;99.90;;;;;;5015002;28;20040;-75
2022/02/07 03:08:14;;;;;;;14.27;0.50;;;5.40;99.90;;;;;;5014774;28;20041;-75
2022/02/07 03:18:23;;;;;;;22.45;1.15;;;5.30;99.90;;;;;;5015903;28;20375;-76
2022/02/07 03:20:49;;;;;;;7.25;0.47;;;5.30;99.90;;;;;;4997331;28;20026;-76
2022/02/07 03:23:14;;;;;;;8.40;0.57;;;5.30;99.90;;;;;;4997259;28;20022;-76
2022/02/07 03:25:40;;;;;;;12.55;1.85;;;5.30;99.90;;;;;;5014842;28;20025;-76
2022/02/07 03:28:06;;;;;;;9.25;0.75;;;5.20;99.90;;;;;;4997113;28;20391;-76
2022/02/07 03:30:33;;;;;;;17.70;0.32;;;5.20;99.90;;;;;;4997030;28;20037;-76
2022/02/07 03:32:58;;;;;;;8.15;1.00;;;5.20;99.90;;;;;;5014773;28;20018;-76
2022/02/07 03:35:24;;;;;;;5.93;0.25;;;5.20;99.90;;;;;;5014409;28;20097;-76
2022/02/07 03:37:50;;;;;;;18.92;1.35;;;5.30;99.90;;;;;;5013197;28;20022;-75
2022/02/07 03:40:16;;;;;;;12.15;0.38;;;5.30;99.90;;;;;;5014360;28;20022;-75
2022/02/07 03:42:41;;;;;;;14.55;1.98;;;5.40;99.90;;;;;;5014686;28;20018;-76
2022/02/07 03:45:07;;;;;;;8.77;0.55;;;5.40;99.90;;;;;;5014302;28;20022;-76
2022/02/07 03:47:33;;;;;;;11.60;0.93;;;5.50;99.90;;;;;;5014158;28;20025;-76
2022/02/07 03:49:59;;;;;;;12.68;0.98;;;5.50;99.90;;;;;;5014230;28;20018;-76
2022/02/07 03:52:26;;;;;;;8.02;0.32;;;5.60;99.90;;;;;;4996578;28;20014;-76
2022/02/07 03:54:52;;;;;;;21.63;0.88;;;5.60;99.90;;;;;;4996437;28;20017;-76
2022/02/07 03:57:18;;;;;;;12.65;0.15;;;5.60;99.90;;;;;;5014164;28;20018;-75
2022/02/07 03:59:43;;;;;;;11.45;0.77;;;5.60;99.90;;;;;;4996564;28;20034;-77
2022/02/07 04:02:09;;;;;;;10.10;1.08;;;5.60;99.90;;;;;;5014015;28;20105;-75
2022/02/07 04:04:35;;;;;;;10.82;0.55;;;5.60;99.90;;;;;;4996422;28;20030;-76
2022/02/07 04:07:00;;;;;;;10.55;0.50;;;5.70;99.90;;;;;;4996949;28;20026;-76
2022/02/07 04:09:33;;;;;;;12.70;1.05;;;5.70;99.90;;;;;;4996231;28;20025;-75
2022/02/07 04:12:06;;;;;;;9.23;0.77;;;5.70;99.90;;;;;;4996297;28;20434;-76
2022/02/07 04:14:31;;;;;;;5.97;0.20;;;5.80;99.90;;;;;;4996596;28;20120;-75
2022/02/07 04:16:57;;;;;;;10.80;0.20;;;5.80;99.90;;;;;;4996255;28;20546;-77
2022/02/07 04:19:30;;;;;;;12.40;1.15;;;5.80;99.90;;;;;;5013644;28;20475;-75
2022/02/07 04:21:56;;;;;;;11.73;0.52;;;5.80;99.90;;;;;;5013818;28;20029;-75
2022/02/07 04:24:21;;;;;;;10.48;0.32;;;5.90;99.90;;;;;;4996286;28;20112;-75
2022/02/07 04:26:47;;;;;;;9.27;0.22;;;5.90;99.90;;;;;;4996095;28;20026;-76
2022/02/07 04:29:13;;;;;;;5.22;0.15;;;5.90;99.90;;;;;;5013681;28;20022;-75
2022/02/07 04:31:38;;;;;;;14.77;0.93;;;5.90;99.90;;;;;;5013961;28;20026;-75
2022/02/07 04:34:04;;;;;;;21.90;1.83;;;5.80;99.90;;;;;;4996534;28;20455;-75
2022/02/07 04:36:30;;;;;;;16.08;0.65;;;5.80;99.90;;;;;;5013629;28;20101;-75
2022/02/07 04:38:56;;;;;;;6.60;0.28;;;5.70;99.90;;;;;;4996094;28;20037;-75
2022/02/07 04:41:23;;;;;;;8.75;0.05;;;5.60;99.90;;;;;;4996067;28;20030;-75
2022/02/07 04:44:00;;;;;;;18.67;1.40;;;5.50;99.90;;;;;;5012261;28;20069;-74
2022/02/07 04:57:10;;;;;;;10.98;0.38;;;5.30;99.90;;;;;;5014745;28;20136;-75
2022/02/07 05:02:12;;;;;;;14.68;0.50;;;5.40;99.90;;;;;;5013686;28;20117;-75
2022/02/07 05:04:43;;;;;;;17.45;0.50;;;5.40;99.90;;;;;;5013114;28;20026;-77
2022/02/07 05:15:21;;;;;;;14.25;0.65;;;5.60;99.90;;;;;;5013867;28;20490;-77
2022/02/07 05:17:46;;;;;;;10.00;0.60;;;5.50;99.90;;;;;;5014041;28;20022;-77
2022/02/07 05:20:12;;;;;;;22.67;0.63;;;5.50;99.90;;;;;;5014192;28;20030;-76
2022/02/07 05:22:38;;;;;;;13.05;0.75;;;5.60;99.90;;;;;;4995951;28;20407;-76
2022/02/07 05:25:04;;;;;;;14.43;0.82;;;5.60;99.90;;;;;;4995496;28;20103;-77
2022/02/07 05:27:30;;;;;;;10.75;0.85;;;5.50;99.90;;;;;;4995583;28;20029;-78
2022/02/07 05:29:55;;;;;;;12.07;0.32;;;5.50;99.90;;;;;;5013586;28;20108;-75
2022/02/07 05:32:21;;;;;;;10.93;0.47;;;5.50;99.90;;;;;;5015427;28;20037;-75
2022/02/07 05:34:47;;;;;;;13.10;1.13;;;5.50;99.90;;;;;;4999101;28;20025;-75
2022/02/07 05:37:14;;;;;;;8.07;0.50;;;5.50;99.90;;;;;;5016748;28;20028;-76
2022/02/07 05:39:42;;;;;;;9.32;0.25;;;5.50;99.90;;;;;;5016681;28;20129;-76
2022/02/07 05:42:08;;;;;;;7.88;0.40;;;5.50;99.90;;;;;;5015588;28;20021;-75
2022/02/07 05:44:38;;;;;;;8.73;0.57;;;5.50;99.90;;;;;;5016465;28;20014;-75
2022/02/07 05:47:04;;;;;;;14.30;0.95;;;5.40;99.90;;;;;;4998890;28;20028;-76
2022/02/07 05:49:29;;;;;;;15.57;0.68;;;5.40;99.90;;;;;;5016802;28;20025;-76
2022/02/07 05:51:55;;;;;;;10.88;0.77;;;5.40;99.90;;;;;;5017132;28;20547;-76
2022/02/07 05:54:21;;;;;;;14.73;0.43;;;5.30;99.90;;;;;;4999114;28;20113;-76
2022/02/07 05:56:47;;;;;;;6.25;1.08;;;5.30;99.90;;;;;;4998893;28;20121;-76
2022/02/07 05:59:13;;;;;;;10.15;0.77;;;5.30;99.90;;;;;;4998837;28;20061;-76
2022/02/07 06:01:39;;;;;;;8.25;0.65;;;5.30;99.90;;;;;;4998748;28;20144;-76
2022/02/07 06:04:04;;;;;;;17.27;1.27;;;5.30;99.90;;;;;;5016349;28;20052;-75
2022/02/07 06:06:30;;;;;;;12.35;0.52;;;5.40;99.90;;;;;;5016014;28;20434;-75
2022/02/07 06:08:55;;;;;;;12.85;0.65;;;5.50;99.90;;;;;;5015977;28;20098;-75
2022/02/07 06:11:21;;;;;;;7.65;0.45;;;5.50;99.90;;;;;;5016276;28;20033;-76
2022/02/07 06:13:46;;;;;;;17.48;2.83;;;5.50;99.90;;;;;;4998243;28;20014;-75
2022/02/07 06:16:17;;;;;;;18.27;1.30;;;5.50;99.90;;;;;;5016290;28;20494;-76
2022/02/07 06:18:44;;;;;;;13.40;0.32;;;5.50;99.90;;;;;;4998355;28;20457;-75
2022/02/07 06:21:13;;;;;;;17.90;0.93;;;5.60;99.90;;;;;;5015828;28;20026;-76
2022/02/07 06:23:38;;;;;;;11.18;1.08;;;5.60;99.90;;;;;;5015802;28;20026;-75
2022/02/07 06:26:04;;;;;;;13.38;1.02;;;5.60;99.90;;;;;;5015682;28;20022;-75
2022/02/07 06:28:30;;;;;;;19.75;1.83;;;5.60;99.90;;;;;;5015730;28;20387;-74
2022/02/07 06:30:55;;;;;;;11.90;1.70;;;5.70;99.90;;;;;;5015845;28;20015;-77
2022/02/07 06:33:22;;;;;;;6.78;0.65;;;5.70;99.90;;;;;;4998161;28;20037;-75
2022/02/07 06:35:47;;;;;;;13.60;0.20;;;5.70;99.90;;;;;;5015742;28;20387;-74
2022/02/07 06:38:13;;;;;;;11.60;0.77;;;5.70;99.90;;;;;;5014305;28;20026;-75
2022/02/07 06:40:38;;;;;;;18.02;1.75;;;5.70;99.90;;;;;;5014599;28;20037;-75
2022/02/07 06:43:04;;;;;;;9.88;0.57;;;5.70;99.90;;;;;;4997214;28;20029;-74
2022/02/07 06:45:29;;;;;;;23.70;1.10;;;5.60;99.90;;;;;;5015224;28;20057;-74
2022/02/07 06:47:55;;;;;;;18.17;0.63;;;5.60;99.90;;;;;;5015544;28;20022;-75
2022/02/07 06:50:20;;;;;;;18.63;1.00;;;5.50;99.90;;;;;;5015242;28;20030;-76
2022/02/07 06:52:46;;;;;;;10.25;0.85;;;5.40;99.90;;;;;;5015296;28;20022;-76
2022/02/07 06:55:11;;;;;;;22.15;0.90;;;5.30;99.90;;;;;;5015243;28;20065;-75
2022/02/07 06:57:40;;;;;;;16.05;0.93;;;5.20;99.90;;;;;;5015297;28;20109;-74
2022/02/07 07:00:09;;;;;;;25.75;2.60;;;5.10;99.90;;;;;;5015204;28;20029;-75
2022/02/07 07:02:35;;;;;;;20.90;1.15;;;5.10;99.90;;;;;;5014963;28;20046;-73
2022/02/07 07:05:08;;;;;;;9.38;0.57;;;5.10;99.90;;;;;;4996923;28;20072;-75
2022/02/07 07:07:34;;;;;;;18.75;1.02;;;5.20;99.90;;;;;;4997820;28;20379;-76
2022/02/07 07:10:00;;;;;;;8.32;0.40;;;5.20;99.90;;;;;;5015388;28;20022;-76
2022/02/07 07:12:27;;;;;;;12.18;0.43;;;5.20;99.90;;;;;;5015958;28;20018;-77
2022/02/07 07:15:04;;;;;;;6.15;0.65;;;5.30;99.90;;;;;;5014886;28;20487;-75
2022/02/07 07:17:30;;;;;;;12.40;1.30;;;5.30;99.90;;;;;;4998188;28;20022;-76
2022/02/07 07:20:01;;;;;;;11.40;0.40;;;5.30;99.90;;;;;;5015410;28;20017;-76
2022/02/07 07:22:26;;;;;;;9.98;0.75;;;5.40;99.90;;;;;;4997505;28;20025;-76
2022/02/07 07:24:52;;;;;;;10.85;0.20;;;5.40;99.90;;;;;;5014765;28;20029;-75
2022/02/07 07:27:23;;;;;;;14.57;1.10;;;5.40;99.90;;;;;;4997352;28;20471;-75
2022/02/07 07:29:49;;;;;;;13.10;1.73;;;5.40;99.90;;;;;;4997180;28;20014;-76
2022/02/07 07:32:20;;;;;;;16.60;1.40;;;5.50;99.90;;;;;;5014637;28;20093;-76
2022/02/07 07:34:45;;;;;;;15.52;0.98;;;5.60;99.90;;;;;;4997112;28;20041;-74
2022/02/07 07:37:11;;;;;;;14.15;1.27;;;5.70;99.90;;;;;;5014415;28;20041;-74
2022/02/07 07:39:37;;;;;;;10.57;1.65;;;5.70;99.90;;;;;;4997043;28;20018;-75
2022/02/07 07:42:03;;;;;;;14.25;0.82;;;5.70;99.90;;;;;;5014325;28;20057;-77
2022/02/07 07:44:33;;;;;;;15.90;1.13;;;5.80;99.90;;;;;;4996740;28;20022;-75
2022/02/07 07:47:07;;;;;;;13.93;0.85;;;5.80;99.90;;;;;;5014635;28;20452;-75
2022/02/07 07:49:39;;;;;;;13.98;0.63;;;5.80;99.90;;;;;;5014309;28;20021;-75
2022/02/07 07:52:12;;;;;;;11.55;0.35;;;5.80;99.90;;;;;;5014946;28;20022;-75
2022/02/07 07:55:09;;;;;;;14.98;1.42;;;5.90;99.90;;;;;;4996372;28;20044;-76
2022/02/07 08:01:21;;;;;;;12.02;0.52;;;5.90;99.90;;;;;;5014909;28;20117;-77
2022/02/07 08:03:15;;;;;;;18.67;1.20;;;6.00;99.90;;;;;;5013455;28;20032;-76
2022/02/07 08:05:54;;;;;;;13.82;1.60;;;6.00;99.90;;;;;;5014180;28;20129;-75
2022/02/07 08:08:32;;;;;;;;;;;6.10;99.90;;;;;;5014694;28;20045;-75
2022/02/07 08:11:05;;;;;;;15.23;1.27;;;6.10;99.90;;;;;;5014704;28;19964;-77
2022/02/07 08:13:32;;;;;;;17.33;0.73;;;6.10;99.90;;;;;;4996371;28;20249;-76
2022/02/07 08:16:00;;;;;;;20.05;0.95;;;6.10;99.90;;;;;;4996377;28;20038;-75
2022/02/07 08:18:26;;;;;;;19.27;0.40;;;6.10;99.90;;;;;;5014421;28;20032;-75
2022/02/07 08:20:52;;;;;;;15.48;0.30;;;6.10;99.90;;;;;;4997027;28;20057;-75
2022/02/07 08:23:18;;;;;;;18.80;0.93;;;6.10;99.90;;;;;;4997067;28;20506;-75
2022/02/07 08:25:44;;;;;;;18.35;0.85;;;6.10;99.90;;;;;;5014395;28;20026;-76
2022/02/07 08:28:09;;;;;;;18.38;1.13;;;6.20;99.90;;;;;;5014958;28;20053;-75
2022/02/07 08:30:35;;;;;;;12.80;1.63;;;6.20;99.90;;;;;;4996292;28;20024;-76
2022/02/07 08:33:03;;;;;;;11.07;0.28;;;6.30;99.90;;;;;;4996322;28;20032;-75
2022/02/07 08:35:29;;;;;;;14.55;0.50;;;6.30;99.90;;;;;;5013745;28;20025;-75
2022/02/07 08:37:56;;;;;;;11.73;1.52;;;6.40;99.90;;;;;;5013826;28;20106;-75
2022/02/07 08:40:24;;;;;;;15.27;0.35;;;6.40;99.90;;;;;;4996308;28;20028;-74
2022/02/07 08:42:50;;;;;;;14.32;0.90;;;6.40;99.90;;;;;;5014140;28;20049;-77
2022/02/07 08:45:17;;;;;;;9.35;0.88;;;6.50;99.90;;;;;;5013733;28;20061;-76
2022/02/07 08:47:43;;;;;;;17.20;0.93;;;6.60;99.90;;;;;;4996289;28;20064;-77
2022/02/07 08:50:11;;;;;;;13.95;0.32;;;6.70;99.90;;;;;;4996479;28;20025;-77
2022/02/07 08:52:41;;;;;;;25.42;0.90;;;6.90;99.90;;;;;;4996625;28;20403;-77
2022/02/07 08:55:09;;;;;;;13.70;0.70;;;7.00;99.90;;;;;;5014478;28;20105;-77
2022/02/07 08:57:39;;;;;;;22.00;1.40;;;7.00;99.90;;;;;;5013812;28;20041;-77
2022/02/07 09:00:21;;;;;;;18.08;0.20;;;7.00;99.90;;;;;;5014227;28;20026;-76
2022/02/07 09:08:09;;;;;;;18.30;1.05;;;7.10;99.90;;;;;;5017995;28;20034;-77
2022/02/07 09:10:35;;;;;;;8.80;0.77;;;7.10;99.90;;;;;;5017638;28;20029;-77
2022/02/07 09:13:01;;;;;;;12.00;0.90;;;7.20;99.90;;;;;;5017301;28;20018;-77
2022/02/07 09:18:11;;;;;;;19.27;0.65;;;7.40;99.90;;;;;;5017529;28;20034;-75
2022/02/07 09:20:41;;;;;;;12.35;0.52;;;7.40;99.90;;;;;;5000742;28;20025;-76
2022/02/07 09:23:06;;;;;;;9.13;0.10;;;7.40;99.90;;;;;;5017148;28;20022;-75
2022/02/07 09:25:32;;;;;;;17.65;1.08;;;7.40;99.90;;;;;;5017156;28;20107;-75
2022/02/07 09:27:58;;;;;;;16.88;1.23;;;7.50;99.90;;;;;;5017223;28;20030;-76
2022/02/07 09:30:24;;;;;;;8.88;0.45;;;7.50;99.90;;;;;;4999291;28;20022;-75
2022/02/07 09:32:49;;;;;;;13.88;1.08;;;7.60;99.90;;;;;;5016924;28;20380;-76
2022/02/07 09:35:15;;;;;;;12.13;0.60;;;7.60;99.90;;;;;;5016949;28;20026;-75
2022/02/07 09:37:41;;;;;;;12.82;1.40;;;7.60;99.90;;;;;;4999071;28;20029;-75
2022/02/07 09:40:07;;;;;;;19.23;1.23;;;7.70;99.90;;;;;;5017265;28;20090;-76
2022/02/07 09:42:35;;;;;;;9.88;0.30;;;7.70;99.90;;;;;;5016861;28;20040;-76
2022/02/07 09:45:11;;;;;;;8.55;0.30;;;7.80;99.90;;;;;;4999155;28;20018;-76
2022/02/07 09:47:38;;;;;;;13.07;1.30;;;7.80;99.90;;;;;;4999215;28;20467;-75
2022/02/07 09:50:06;;;;;;;12.40;0.10;;;7.90;99.90;;;;;;5016661;28;20026;-75
2022/02/07 09:52:32;;;;;;;11.17;0.10;;;8.00;99.90;;;;;;4999104;28;20060;-76
2022/02/07 09:54:58;;;;;;;11.15;1.55;;;8.10;99.90;;;;;;5017149;28;20034;-75
2022/02/07 09:57:23;;;;;;;12.07;0.52;;;8.20;99.90;;;;;;4999005;28;20476;-75
2022/02/07 09:59:51;;;;;;;8.40;0.30;;;8.30;99.90;;;;;;4999045;28;20018;-75
2022/02/07 10:02:52;;;;;;;11.43;0.65;;;8.40;99.90;;;;;;5016830;28;20025;-75
2022/02/07 10:05:22;;;;;;;8.95;0.82;;;8.50;99.90;;;;;;5015736;28;20107;-75
2022/02/07 10:08:04;;;;;;;12.05;0.43;;;8.50;99.90;;;;;;5016559;28;20072;-76
2022/02/07 10:10:37;;;;;;;20.77;0.65;;;8.60;99.90;;;;;;4998734;28;20396;-76
2022/02/07 10:18:40;;;;;;;7.80;0.63;;;8.50;99.90;;;;;;5015620;28;20026;-75
2022/02/07 10:43:30;;;;;;;10.10;0.10;;;8.70;99.90;;;;;;5016264;28;20030;-76
2022/02/07 10:46:10;;;;;;;6.20;0.28;;;8.50;99.90;;;;;;4997979;28;20328;-76
2022/02/07 10:49:09;;;;;;;6.32;0.40;;;8.30;99.90;;;;;;4997976;28;20479;-76
2022/02/07 10:51:36;;;;;;;13.35;0.35;;;8.10;99.90;;;;;;4998026;28;20479;-76
2022/02/07 10:54:12;;;;;;;7.68;0.20;;;8.00;99.90;;;;;;5015400;28;20026;-76
2022/02/07 10:56:45;;;;;;;13.18;0.20;;;7.90;99.90;;;;;;5015715;28;20026;-76
2022/02/07 10:59:17;;;;;;;11.27;0.63;;;7.90;99.90;;;;;;5015900;28;20030;-76
2022/02/07 11:04:18;;;;;;;10.52;0.38;;;7.90;99.90;;;;;;5015275;28;20450;-76
2022/02/07 11:06:49;;;;;;;12.48;0.22;;;7.90;99.90;;;;;;5015307;28;20025;-76
2022/02/07 11:09:23;;;;;;;8.48;0.40;;;8.00;99.90;;;;;;4997669;28;20476;-77
2022/02/07 11:12:21;;;;;;;13.88;0.57;;;8.10;99.90;;;;;;5015501;28;20064;-76
2022/02/07 11:14:45;;;;;;;11.00;0.80;;;8.00;99.90;;;;;;5014144;28;20179;-76
2022/02/07 11:20:24;;;;;;;8.77;0.47;;;8.30;99.90;;;;;;5015580;28;20042;-76
2022/02/07 11:25:44;;;;;;;17.90;0.60;;;8.20;99.90;;;;;;5015560;28;20042;-76
2022/02/07 11:28:25;;;;;;;8.85;0.85;;;8.10;99.90;;;;;;5015215;28;20381;-76
2022/02/07 11:30:58;;;;;;;6.50;0.10;;;8.20;99.90;;;;;;4997339;28;20021;-76
2022/02/07 11:33:32;;;;;;;7.90;0.30;;;8.30;99.90;;;;;;5014748;28;20029;-76
2022/02/07 11:35:58;;;;;;;11.23;0.20;;;11.40;99.90;;;;;;4997192;28;20026;-76
2022/02/07 11:38:23;;;;;;;9.75;1.00;;;8.30;99.90;;;;;;5014638;28;20092;-76
2022/02/07 11:40:55;;;;;;;14.73;0.93;;;8.30;99.90;;;;;;5013504;28;20049;-76
2022/02/07 11:43:23;;;;;;;11.48;1.25;;;8.20;99.90;;;;;;5014808;28;20034;-76
2022/02/07 11:45:54;;;;;;;7.82;0.57;;;8.30;99.90;;;;;;4997296;28;20029;-76
2022/02/07 11:48:30;;;;;;;8.02;0.90;;;8.30;99.90;;;;;;5014597;28;20480;-76
2022/02/07 11:50:58;;;;;;;15.82;0.68;;;8.30;99.90;;;;;;4997101;28;20025;-76
2022/02/07 11:53:39;;;;;;;9.27;0.22;;;8.40;99.90;;;;;;5014563;28;20030;-75
2022/02/07 11:56:10;;;;;;;5.88;0.00;;;8.50;99.90;;;;;;4996791;28;20400;-76
2022/02/07 11:58:58;;;;;;;9.77;0.40;;;8.60;99.90;;;;;;5014899;28;20413;-76
2022/02/07 12:02:03;;;;;;;9.18;0.55;;;8.80;99.90;;;;;;4996778;28;20096;-75
2022/02/07 12:04:33;;;;;;;5.28;0.00;;;8.90;99.90;;;;;;4973302;28;20023;-76
2022/02/07 12:07:15;;;;;;;7.57;0.40;;;9.00;99.90;;;;;;4957622;28;20026;-77
2022/02/07 12:10:01;;;;;;;9.80;0.32;;;8.90;99.90;;;;;;4981173;28;20395;-76
2022/02/07 12:12:47;;;;;;;8.93;0.45;;;8.60;99.90;;;;;;5014272;28;20021;-76
2022/02/07 12:15:31;;;;;;;11.50;0.65;;;8.40;99.90;;;;;;5013984;28;20046;-77
2022/02/07 12:17:58;;;;;;;8.50;0.28;;;8.40;99.90;;;;;;4996687;28;20029;-76
2022/02/07 12:20:30;;;;;;;4.78;0.28;;;8.50;99.90;;;;;;5014800;28;20026;-76
2022/02/07 12:23:04;;;;;;;5.43;0.17;;;8.50;99.90;;;;;;5014756;28;20109;-76
2022/02/07 12:25:29;;;;;;;8.05;0.40;;;8.60;99.90;;;;;;5014066;28;20026;-76
2022/02/07 12:27:59;;;;;;;8.52;0.20;;;8.60;99.90;;;;;;5014198;28;20435;-76
2022/02/07 12:30:43;;;;;;;13.40;0.47;;;8.60;99.90;;;;;;4996507;28;20048;-76
2022/02/07 12:33:10;;;;;;;8.25;0.32;;;8.50;99.90;;;;;;5013836;28;20472;-76
2022/02/07 12:35:36;;;;;;;8.20;0.17;;;8.30;99.90;;;;;;5013921;28;20030;-76
2022/02/07 12:38:02;;;;;;;5.10;0.40;;;8.20;99.90;;;;;;5013809;28;20033;-76
2022/02/07 12:40:28;;;;;;;7.28;0.20;;;8.00;99.90;;;;;;4996000;28;20068;-76
2022/02/07 12:42:55;;;;;;;6.38;0.60;;;7.90;99.90;;;;;;5013290;28;20057;-76
2022/02/07 12:45:27;;;;;;;9.82;1.38;;;7.90;99.90;;;;;;5014288;28;20052;-76
2022/02/07 12:47:56;;;;;;;11.02;0.68;;;8.00;99.90;;;;;;5013937;28;20029;-76
2022/02/07 12:50:23;;;;;;;10.10;0.22;;;8.30;99.90;;;;;;4996113;28;20188;-76
2022/02/07 12:52:53;;;;;;;14.18;0.80;;;8.60;99.90;;;;;;5013910;28;20340;-76
2022/02/07 12:55:19;;;;;;;14.77;0.57;;;8.90;99.90;;;;;;5014264;28;20033;-77
2022/02/07 12:57:45;;;;;;;11.43;0.40;;;9.10;99.90;;;;;;5013833;28;20026;-76
2022/02/07 13:00:14;;;;;;;11.77;0.40;;;9.30;99.90;;;;;;4996818;28;20026;-76
2022/02/07 13:02:42;;;;;;;9.00;0.17;;;9.60;99.90;;;;;;5013774;28;20081;-76
2022/02/07 13:05:19;;;;;;;7.00;0.10;;;9.90;99.90;;;;;;4995835;28;20439;-76
2022/02/07 13:07:51;;;;;;;13.30;0.60;;;10.20;99.90;;;;;;5013988;28;20030;-76
2022/02/07 13:10:22;;;;;;;8.60;0.88;;;10.40;99.90;;;;;;5013838;28;20022;-76
2022/02/07 13:15:23;;;;;;;5.65;0.63;;;10.10;99.90;;;;;;5013730;28;20139;-76
2022/02/07 13:18:00;;;;;;;4.07;0.00;;;10.00;99.90;;;;;;5013566;28;20033;-76
2022/02/07 13:20:27;;;;;;;18.02;0.30;;;9.60;99.90;;;;;;5013907;28;20032;-76
2022/02/07 13:23:06;;;;;;;6.95;1.10;;;9.20;99.90;;;;;;5013592;28;20479;-76
2022/02/07 13:25:53;;;;;;;20.95;1.05;;;9.00;99.90;;;;;;5013256;28;20030;-76
2022/02/07 13:28:21;;;;;;;8.50;0.38;;;8.90;99.90;;;;;;5013343;28;20051;-76
2022/02/07 13:30:52;;;;;;;9.43;0.30;;;9.00;99.90;;;;;;5013677;28;20544;-76
2022/02/07 13:33:18;;;;;;;6.95;0.10;;;9.30;99.90;;;;;;4996030;28;20046;-76
2022/02/07 13:35:47;;;;;;;1.80;0.15;;;9.60;99.90;;;;;;5014190;28;20073;-76
2022/02/07 13:38:14;;;;;;;;;;;9.80;99.90;;;;;;4996137;28;20017;-76
2022/02/07 13:40:44;;;;;;;5.32;0.22;;;10.00;99.90;;;;;;5013968;28;19905;-76
2022/02/07 13:43:24;;;;;;;4.80;0.15;;;10.10;99.90;;;;;;4995703;28;20108;-76
2022/02/07 13:45:56;;;;;;;7.05;0.10;;;10.30;98.70;;;;;;5013548;28;20104;-76
2022/02/07 13:48:24;;;;;;;4.78;1.08;;;10.20;99.90;;;;;;5013772;28;20467;-76
2022/02/07 13:50:53;;;;;;;4.03;0.00;;;9.90;98.20;;;;;;5014063;28;20034;-76
2022/02/07 13:53:20;;;;;;;3.55;0.20;;;9.60;97.60;;;;;;4996180;28;20042;-76
2022/02/07 13:55:48;;;;;;;3.00;0.00;;;9.60;99.90;;;;;;5016580;28;20080;-76
2022/02/07 13:58:16;;;;;;;7.85;0.17;;;9.80;98.70;;;;;;5017032;28;20018;-76
2022/02/07 14:00:47;;;;;;;5.30;0.00;;;10.00;96.80;;;;;;5017225;28;20472;-76
2022/02/07 14:03:23;;;;;;;8.20;0.30;;;10.00;97.90;;;;;;4999106;28;20076;-76
2022/02/07 14:06:11;;;;;;;7.43;0.93;;;10.40;96.90;;;;;;4998970;28;20022;-76
2022/02/07 14:08:53;;;;;;;5.55;0.22;;;10.40;96.00;;;;;;5010012;28;20041;-76
2022/02/07 14:11:31;;;;;;;9.93;0.20;;;10.20;95.70;;;;;;4998831;28;20021;-76
2022/02/07 14:14:01;;;;;;;4.63;0.00;;;10.10;96.50;;;;;;4998841;28;20037;-76
2022/02/07 14:16:27;;;;;;;4.55;0.25;;;10.30;94.70;;;;;;5017061;28;20026;-76
2022/02/07 14:18:54;;;;;;;4.88;0.45;;;10.40;91.50;;;;;;5016501;28;20521;-76
2022/02/07 14:21:22;;;;;;;6.75;0.35;;;10.40;90.60;;;;;;4998650;28;20021;-76
2022/02/07 14:23:50;;;;;;;3.95;0.00;;;10.50;90.30;;;;;;4998591;28;20051;-75
2022/02/07 14:26:19;;;;;;;1.63;0.00;;;10.50;90.20;;;;;;4998331;28;20060;-75
2022/02/07 14:28:47;;;;;;;3.85;0.32;;;10.60;90.00;;;;;;5016067;28;20026;-73
2022/02/07 14:31:14;;;;;;;1.25;0.00;;;10.70;89.00;;;;;;5015864;28;20483;-74
2022/02/07 14:33:40;;;;;;;2.78;0.10;;;10.70;83.70;;;;;;4998245;28;20549;-74
2022/02/07 14:36:10;;;;;;;4.30;0.40;;;10.70;84.70;;;;;;5015947;28;20018;-74
2022/02/07 14:38:36;;;;;;;4.53;0.10;;;10.80;82.70;;;;;;5015827;28;20072;-74
2022/02/07 14:41:05;;;;;;;2.25;0.20;;;11.10;83.30;;;;;;5016440;28;20073;-73
2022/02/07 14:43:32;;;;;;;3.60;0.20;;;11.20;75.90;;;;;;5015646;28;20438;-73
2022/02/07 14:48:32;;;;;;;5.85;0.00;;;11.00;78.10;;;;;;5015882;28;20407;-73
2022/02/07 14:50:58;;;;;;;5.82;0.20;;;10.90;82.00;;;;;;5015552;28;20050;-73
2022/02/07 14:53:24;;;;;;;4.40;0.10;;;10.70;81.30;;;;;;5015772;28;20103;-74
2022/02/07 14:55:52;;;;;;;4.00;0.25;;;10.70;78.80;;;;;;5014452;28;20022;-73
2022/02/07 14:58:18;;;;;;;7.22;1.23;;;10.50;77.70;;;;;;4998265;28;20029;-73
2022/02/07 15:00:44;;;;;;;2.00;0.00;;;10.40;80.80;;;;;;5015562;28;20034;-74
2022/02/07 15:03:15;;;;;;;6.22;0.10;;;10.50;83.30;;;;;;4997986;28;20037;-75
2022/02/07 15:05:41;;;;;;;13.27;1.38;;;10.60;82.10;;;;;;4997365;28;20026;-74
2022/02/07 15:08:07;;;;;;;8.73;0.10;;;10.70;84.10;;;;;;5015454;28;20519;-75
2022/02/07 15:10:35;;;;;;;1.50;0.00;;;10.90;81.80;;;;;;4997796;28;20022;-75
2022/02/07 15:13:02;;;;;;;3.70;0.32;;;11.30;81.40;;;;;;5015613;28;20029;-75
2022/02/07 15:15:28;;;;;;;1.88;0.20;;;11.70;76.80;;;;;;5014857;28;20034;-75
2022/02/07 15:17:55;;;;;;;3.15;0.00;;;11.80;74.70;;;;;;5015037;28;20029;-75
2022/02/07 15:20:21;;;;;;;4.38;0.10;;;11.80;75.10;;;;;;5014591;28;20084;-75
2022/02/07 15:22:49;;;;;;;3.67;0.20;;;11.80;73.60;;;;;;5015344;28;20022;-74
2022/02/07 15:25:22;;;;;;;6.40;0.03;;;12.00;73.70;;;;;;4997260;28;20017;-74